createdAt,value
2019-01-19T00:01:05.166Z,-1.56
2019-01-19T00:03:05.247Z,-1.63
2019-01-19T00:05:10.324Z,-1.63
2019-01-19T00:07:05.090Z,-1.56
2019-01-19T00:08:22.125Z,-1.56
2019-01-19T00:09:05.068Z,-1.56
2019-01-19T00:11:05.116Z,-1.56
2019-01-19T00:13:05.640Z,-1.56
2019-01-19T00:15:05.225Z,-1.56
2019-01-19T00:17:06.936Z,-1.56
2019-01-19T00:19:05.124Z,-1.63
2019-01-19T00:21:05.098Z,-1.69
2019-01-19T00:23:06.197Z,-1.69
2019-01-19T00:23:22.071Z,-1.69
2019-01-19T00:25:05.165Z,-1.69
2019-01-19T00:27:05.343Z,-1.69
2019-01-19T00:29:05.170Z,-1.69
2019-01-19T00:31:06.101Z,-1.69
2019-01-19T00:33:05.267Z,-1.75
2019-01-19T00:35:05.183Z,-1.75
2019-01-19T00:37:05.309Z,-1.75
2019-01-19T00:38:22.092Z,-1.81
2019-01-19T00:39:05.168Z,-1.81
2019-01-19T00:41:05.113Z,-1.81
2019-01-19T00:43:05.284Z,-1.81
2019-01-19T00:45:05.119Z,-1.81
2019-01-19T00:47:05.116Z,-1.75
2019-01-19T00:49:05.040Z,-1.75
2019-01-19T00:51:05.046Z,-1.75
2019-01-19T00:53:05.055Z,-1.75
2019-01-19T00:53:22.102Z,-1.75
2019-01-19T00:55:05.158Z,-1.75
2019-01-19T00:57:06.064Z,-1.75
2019-01-19T00:59:05.135Z,-1.75
2019-01-19T01:01:05.068Z,-1.75
2019-01-19T01:03:06.093Z,-1.75
2019-01-19T01:05:05.297Z,-1.81
2019-01-19T01:07:05.125Z,-1.81
2019-01-19T01:08:22.077Z,-1.81
2019-01-19T01:09:05.052Z,-1.81
2019-01-19T01:11:05.153Z,-1.81
2019-01-19T01:13:05.167Z,-1.88
2019-01-19T01:15:05.057Z,-1.94
2019-01-19T01:17:05.130Z,-1.94
2019-01-19T01:19:05.078Z,-1.94
2019-01-19T01:21:06.039Z,-1.94
2019-01-19T01:23:06.009Z,-1.94
2019-01-19T01:23:22.069Z,-1.94
2019-01-19T01:25:06.026Z,-1.94
2019-01-19T01:27:05.252Z,-1.94
2019-01-19T01:29:06.040Z,-1.94
2019-01-19T01:31:05.130Z,-1.94
2019-01-19T01:33:05.063Z,-2
2019-01-19T01:35:05.084Z,-2
2019-01-19T01:37:05.101Z,-2.06
2019-01-19T01:38:22.094Z,-2
2019-01-19T01:39:05.139Z,-2
2019-01-19T01:41:05.163Z,-2
2019-01-19T01:43:05.061Z,-2.06
2019-01-19T01:45:05.153Z,-2.06
2019-01-19T01:47:05.150Z,-2.06
2019-01-19T01:49:05.155Z,-2.13
2019-01-19T01:51:05.170Z,-2.13
2019-01-19T01:53:05.114Z,-2.13
2019-01-19T01:53:22.203Z,-2.13
2019-01-19T01:55:05.101Z,-2.19
2019-01-19T01:57:05.121Z,-2.13
2019-01-19T01:59:05.072Z,-2.13
2019-01-19T02:01:05.175Z,-2.13
2019-01-19T02:03:05.164Z,-2.13
2019-01-19T02:05:05.178Z,-2.13
2019-01-19T02:07:05.172Z,-2.19
2019-01-19T02:08:22.124Z,-2.13
2019-01-19T02:09:05.188Z,-2.13
2019-01-19T02:11:05.175Z,-2.13
2019-01-19T02:13:05.165Z,-2.13
2019-01-19T02:15:05.132Z,-2.13
2019-01-19T02:17:05.961Z,-2.13
2019-01-19T02:19:05.118Z,-2.19
2019-01-19T02:21:05.179Z,-2.19
2019-01-19T02:23:05.050Z,-2.19
2019-01-19T02:23:22.136Z,-2.19
2019-01-19T02:25:05.158Z,-2.19
2019-01-19T02:27:05.983Z,-2.31
2019-01-19T02:29:05.180Z,-2.31
2019-01-19T02:31:05.116Z,-2.38
2019-01-19T02:33:05.117Z,-2.31
2019-01-19T02:35:05.077Z,-2.31
2019-01-19T02:37:05.169Z,-2.31
2019-01-19T02:38:22.097Z,-2.38
2019-01-19T02:39:05.171Z,-2.38
2019-01-19T02:41:05.149Z,-2.44
2019-01-19T02:43:05.170Z,-2.38
2019-01-19T02:45:05.149Z,-2.38
2019-01-19T02:47:05.063Z,-2.38
2019-01-19T02:49:05.193Z,-2.31
2019-01-19T02:51:06.005Z,-2.31
2019-01-19T02:53:05.040Z,-2.31
2019-01-19T02:53:22.094Z,-2.31
2019-01-19T02:55:06.152Z,-2.38
2019-01-19T02:57:06.060Z,-2.38
2019-01-19T02:59:05.173Z,-2.38
2019-01-19T03:01:05.214Z,-2.31
2019-01-19T03:03:05.146Z,-2.38
2019-01-19T03:05:05.250Z,-2.44
2019-01-19T03:07:05.141Z,-2.44
2019-01-19T03:08:22.192Z,-2.5
2019-01-19T03:09:05.064Z,-2.5
2019-01-19T03:11:05.161Z,-2.5
2019-01-19T03:13:06.051Z,-2.56
2019-01-19T03:15:05.069Z,-2.56
2019-01-19T03:17:05.158Z,-2.56
2019-01-19T03:19:06.062Z,-2.56
2019-01-19T03:21:05.134Z,-2.63
2019-01-19T03:23:05.063Z,-2.63
2019-01-19T03:23:22.115Z,-2.63
2019-01-19T03:25:05.058Z,-2.56
2019-01-19T03:27:05.072Z,-2.63
2019-01-19T03:29:05.047Z,-2.69
2019-01-19T03:31:05.114Z,-2.69
2019-01-19T03:33:05.034Z,-2.69
2019-01-19T03:35:05.181Z,-2.75
2019-01-19T03:37:05.172Z,-2.75
2019-01-19T03:38:22.122Z,-2.81
2019-01-19T03:39:05.170Z,-2.75
2019-01-19T03:41:05.110Z,-2.75
2019-01-19T03:43:05.162Z,-2.75
2019-01-19T03:45:05.106Z,-2.75
2019-01-19T03:47:05.160Z,-2.75
2019-01-19T03:49:05.127Z,-2.69
2019-01-19T03:51:05.055Z,-2.69
2019-01-19T03:53:05.187Z,-2.75
2019-01-19T03:53:22.067Z,-2.75
2019-01-19T03:55:05.145Z,-2.75
2019-01-19T03:57:05.098Z,-2.75
2019-01-19T03:59:05.143Z,-2.75
2019-01-19T04:01:05.162Z,-2.69
2019-01-19T04:03:05.168Z,-2.69
2019-01-19T04:05:05.193Z,-2.69
2019-01-19T04:07:05.124Z,-2.63
2019-01-19T04:08:22.132Z,-2.63
2019-01-19T04:09:05.161Z,-2.63
2019-01-19T04:11:05.121Z,-2.63
2019-01-19T04:13:05.159Z,-2.56
2019-01-19T04:15:05.130Z,-2.63
2019-01-19T04:17:05.111Z,-2.63
2019-01-19T04:19:05.164Z,-2.63
2019-01-19T04:21:05.215Z,-2.69
2019-01-19T04:23:05.166Z,-2.63
2019-01-19T04:23:22.986Z,-2.63
2019-01-19T04:25:05.060Z,-2.63
2019-01-19T04:27:05.125Z,-2.63
2019-01-19T04:29:05.994Z,-2.63
2019-01-19T04:31:05.137Z,-2.63
2019-01-19T04:33:06.063Z,-2.63
2019-01-19T04:35:05.165Z,-2.63
2019-01-19T04:37:05.163Z,-2.63
2019-01-19T04:38:22.034Z,-2.63
2019-01-19T04:39:05.111Z,-2.63
2019-01-19T04:41:05.197Z,-2.63
2019-01-19T04:43:05.117Z,-2.69
2019-01-19T04:45:05.183Z,-2.69
2019-01-19T04:47:05.155Z,-2.69
2019-01-19T04:49:05.048Z,-2.75
2019-01-19T04:51:05.148Z,-2.81
2019-01-19T04:53:05.171Z,-2.75
2019-01-19T04:53:22.095Z,-2.75
2019-01-19T04:55:05.164Z,-2.81
2019-01-19T04:57:05.074Z,-2.75
2019-01-19T04:59:06.021Z,-2.81
2019-01-19T05:01:05.070Z,-2.88
2019-01-19T05:03:05.124Z,-2.88
2019-01-19T05:05:05.302Z,-2.88
2019-01-19T05:07:05.158Z,-2.81
2019-01-19T05:08:22.085Z,-2.81
2019-01-19T05:09:05.124Z,-2.81
2019-01-19T05:11:05.165Z,-2.81
2019-01-19T05:13:05.158Z,-2.88
2019-01-19T05:15:06.019Z,-2.81
2019-01-19T05:17:05.194Z,-2.81
2019-01-19T05:19:05.055Z,-2.75
2019-01-19T05:21:05.064Z,-2.75
2019-01-19T05:23:05.152Z,-2.75
2019-01-19T05:23:22.082Z,-2.75
2019-01-19T05:25:05.115Z,-2.75
2019-01-19T05:27:05.164Z,-2.81
2019-01-19T05:29:05.208Z,-2.81
2019-01-19T05:31:05.159Z,-2.81
2019-01-19T05:33:05.115Z,-2.81
2019-01-19T05:35:05.189Z,-2.75
2019-01-19T05:37:05.178Z,-2.69
2019-01-19T05:38:22.127Z,-2.75
2019-01-19T05:39:06.025Z,-2.75
2019-01-19T05:41:05.172Z,-2.75
2019-01-19T05:43:06.009Z,-2.75
2019-01-19T05:45:05.183Z,-2.75
2019-01-19T05:47:05.058Z,-2.75
2019-01-19T05:49:05.111Z,-2.69
2019-01-19T05:51:05.124Z,-2.75
2019-01-19T05:53:05.114Z,-2.75
2019-01-19T05:53:22.019Z,-2.75
2019-01-19T05:55:05.131Z,-2.75
2019-01-19T05:57:06.024Z,-2.69
2019-01-19T05:59:05.063Z,-2.75
2019-01-19T06:01:05.200Z,-2.69
2019-01-19T06:03:05.069Z,-2.69
2019-01-19T06:05:05.065Z,-2.69
2019-01-19T06:07:05.187Z,-2.69
2019-01-19T06:08:22.032Z,-2.63
2019-01-19T06:09:06.040Z,-2.63
2019-01-19T06:11:05.108Z,-2.63
2019-01-19T06:13:06.029Z,-2.63
2019-01-19T06:15:05.123Z,-2.63
2019-01-19T06:17:06.032Z,-2.63
2019-01-19T06:19:05.118Z,-2.63
2019-01-19T06:21:06.029Z,-2.69
2019-01-19T06:23:05.050Z,-2.69
2019-01-19T06:23:22.078Z,-2.69
2019-01-19T06:25:05.124Z,-2.69
2019-01-19T06:27:06.036Z,-2.63
2019-01-19T06:29:05.150Z,-2.63
2019-01-19T06:31:05.056Z,-2.63
2019-01-19T06:33:05.185Z,-2.63
2019-01-19T06:35:06.039Z,-2.63
2019-01-19T06:37:05.122Z,-2.56
2019-01-19T06:38:22.126Z,-2.63
2019-01-19T06:39:05.127Z,-2.56
2019-01-19T06:41:05.056Z,-2.63
2019-01-19T06:43:05.126Z,-2.56
2019-01-19T06:45:05.125Z,-2.56
2019-01-19T06:47:05.096Z,-2.5
2019-01-19T06:49:05.136Z,-2.5
2019-01-19T06:51:05.085Z,-2.5
2019-01-19T06:53:05.066Z,-2.44
2019-01-19T06:53:22.899Z,-2.44
2019-01-19T06:55:05.175Z,-2.44
2019-01-19T06:57:05.126Z,-2.5
2019-01-19T06:59:05.966Z,-2.44
2019-01-19T07:01:06.035Z,-2.44
2019-01-19T07:03:05.117Z,-2.5
2019-01-19T07:05:05.135Z,-2.5
2019-01-19T07:07:05.059Z,-2.44
2019-01-19T07:08:22.084Z,-2.5
2019-01-19T07:09:06.052Z,-2.44
2019-01-19T07:11:05.124Z,-2.44
2019-01-19T07:13:05.252Z,-2.44
2019-01-19T07:15:05.066Z,-2.38
2019-01-19T07:17:05.120Z,-2.31
2019-01-19T07:19:05.073Z,-2.31
2019-01-19T07:21:06.975Z,-2.31
2019-01-19T07:23:05.182Z,-2.38
2019-01-19T07:23:22.097Z,-2.38
2019-01-19T07:25:05.117Z,-2.38
2019-01-19T07:27:05.157Z,-2.38
2019-01-19T07:29:06.030Z,-2.38
2019-01-19T07:31:05.068Z,-2.38
2019-01-19T07:33:06.063Z,-2.38
2019-01-19T07:35:05.172Z,-2.38
2019-01-19T07:37:09.646Z,-2.38
2019-01-19T07:38:22.101Z,-2.38
2019-01-19T07:39:05.187Z,-2.38
2019-01-19T07:41:05.173Z,-2.38
2019-01-19T07:43:05.223Z,-2.31
2019-01-19T07:45:05.108Z,-2.31
2019-01-19T07:47:05.158Z,-2.31
2019-01-19T07:49:05.042Z,-2.31
2019-01-19T07:51:05.145Z,-2.31
2019-01-19T07:53:05.130Z,-2.31
2019-01-19T07:53:22.077Z,-2.31
2019-01-19T07:55:05.113Z,-2.25
2019-01-19T07:57:05.139Z,-2.25
2019-01-19T07:59:05.112Z,-2.25
2019-01-19T08:01:05.051Z,-2.25
2019-01-19T08:03:05.069Z,-2.25
2019-01-19T08:05:05.118Z,-2.25
2019-01-19T08:07:05.184Z,-2.25
2019-01-19T08:08:22.103Z,-2.25
2019-01-19T08:09:06.056Z,-2.25
2019-01-19T08:11:05.074Z,-2.25
2019-01-19T08:13:05.128Z,-2.25
2019-01-19T08:15:06.040Z,-2.25
2019-01-19T08:17:05.156Z,-2.19
2019-01-19T08:19:05.071Z,-2.19
2019-01-19T08:21:05.172Z,-2.13
2019-01-19T08:23:05.993Z,-2.13
2019-01-19T08:23:22.117Z,-2.13
2019-01-19T08:25:05.159Z,-2.13
2019-01-19T08:27:05.135Z,-2.06
2019-01-19T08:29:05.155Z,-2.06
2019-01-19T08:31:05.960Z,-2
2019-01-19T08:33:05.162Z,-2
2019-01-19T08:35:05.126Z,-2
2019-01-19T08:37:05.067Z,-1.94
2019-01-19T08:38:22.154Z,-1.94
2019-01-19T08:39:05.093Z,-1.94
2019-01-19T08:41:05.059Z,-1.88
2019-01-19T08:43:06.026Z,-1.88
2019-01-19T08:45:05.237Z,-1.81
2019-01-19T08:47:05.114Z,-1.81
2019-01-19T08:49:05.174Z,-1.81
2019-01-19T08:51:05.159Z,-1.75
2019-01-19T08:53:05.118Z,-1.75
2019-01-19T08:53:22.084Z,-1.69
2019-01-19T08:55:05.063Z,-1.69
2019-01-19T08:57:05.134Z,-1.69
2019-01-19T08:59:05.107Z,-1.63
2019-01-19T09:01:05.161Z,-1.63
2019-01-19T09:03:05.145Z,-1.63
2019-01-19T09:05:06.050Z,-1.56
2019-01-19T09:07:05.049Z,-1.56
2019-01-19T09:08:22.083Z,-1.56
2019-01-19T09:09:05.200Z,-1.5
2019-01-19T09:11:05.233Z,-1.5
2019-01-19T09:13:05.059Z,-1.5
2019-01-19T09:15:05.168Z,-1.44
2019-01-19T09:17:05.115Z,-1.44
2019-01-19T09:19:05.166Z,-1.44
2019-01-19T09:21:05.181Z,-1.44
2019-01-19T09:23:05.161Z,-1.38
2019-01-19T09:23:22.106Z,-1.38
2019-01-19T09:25:05.129Z,-1.38
2019-01-19T09:27:05.113Z,-1.38
2019-01-19T09:29:05.067Z,-1.38
2019-01-19T09:31:05.076Z,-1.31
2019-01-19T09:33:05.277Z,-1.31
2019-01-19T09:35:05.063Z,-1.31
2019-01-19T09:37:05.172Z,-1.25
2019-01-19T09:38:22.127Z,-1.25
2019-01-19T09:39:05.154Z,-1.25
2019-01-19T09:41:05.077Z,-1.19
2019-01-19T09:43:05.120Z,-1.13
2019-01-19T09:45:05.146Z,-1.13
2019-01-19T09:47:05.029Z,-1.06
2019-01-19T09:49:05.165Z,-1
2019-01-19T09:51:05.166Z,-1
2019-01-19T09:53:05.251Z,-0.94
2019-01-19T09:53:22.071Z,-0.94
2019-01-19T09:55:05.168Z,-0.88
2019-01-19T09:57:05.135Z,-0.81
2019-01-19T09:59:05.238Z,-0.81
2019-01-19T10:01:05.072Z,-0.81
2019-01-19T10:03:05.059Z,-0.69
2019-01-19T10:05:05.344Z,-0.63
2019-01-19T10:07:06.040Z,-0.56
2019-01-19T10:08:22.106Z,-0.56
2019-01-19T10:09:05.706Z,-0.56
2019-01-19T10:11:05.163Z,-0.56
2019-01-19T10:13:05.125Z,-0.56
2019-01-19T10:15:06.015Z,-0.56
2019-01-19T10:17:05.202Z,-0.56
2019-01-19T10:19:05.286Z,-0.5
2019-01-19T10:21:06.022Z,-0.44
2019-01-19T10:23:05.133Z,-0.44
2019-01-19T10:23:22.030Z,-0.44
2019-01-19T10:25:05.221Z,-0.31
2019-01-19T10:27:05.976Z,-0.38
2019-01-19T10:29:05.127Z,-0.38
2019-01-19T10:31:05.108Z,-0.38
2019-01-19T10:33:05.061Z,-0.38
2019-01-19T10:35:05.190Z,-0.31
2019-01-19T10:37:05.112Z,-0.38
2019-01-19T10:38:22.173Z,-0.38
2019-01-19T10:39:05.127Z,-0.44
2019-01-19T10:41:05.330Z,-0.44
2019-01-19T10:43:07.065Z,-0.44
2019-01-19T10:45:05.191Z,-0.38
2019-01-19T10:47:05.146Z,-0.38
2019-01-19T10:49:05.095Z,-0.25
2019-01-19T10:51:05.319Z,-0.25
2019-01-19T10:53:05.048Z,-0.19
2019-01-19T10:53:22.255Z,-0.19
2019-01-19T10:55:05.135Z,-0.13
2019-01-19T10:57:05.126Z,-0.13
2019-01-19T10:59:05.065Z,-0.06
2019-01-19T11:01:05.233Z,0.06
2019-01-19T11:03:05.204Z,0.06
2019-01-19T11:05:05.140Z,0.13
2019-01-19T11:07:05.175Z,0.13
2019-01-19T11:08:22.150Z,0.13
2019-01-19T11:09:05.312Z,0.19
2019-01-19T11:11:05.140Z,0.19
2019-01-19T11:13:05.244Z,0.19
2019-01-19T11:15:05.059Z,0.19
2019-01-19T11:17:05.227Z,0.25
2019-01-19T11:19:05.062Z,0.25
2019-01-19T11:21:06.043Z,0.31
2019-01-19T11:23:05.112Z,0.31
2019-01-19T11:23:22.264Z,0.31
2019-01-19T11:25:05.159Z,0.31
2019-01-19T11:27:05.059Z,0.38
2019-01-19T11:29:05.168Z,0.44
2019-01-19T11:31:05.108Z,0.44
2019-01-19T11:33:05.175Z,0.44
2019-01-19T11:35:05.253Z,0.44
2019-01-19T11:37:05.055Z,0.44
2019-01-19T11:38:22.129Z,0.5
2019-01-19T11:39:06.358Z,0.5
2019-01-19T11:41:05.162Z,0.5
2019-01-19T11:43:05.166Z,0.44
2019-01-19T11:45:05.969Z,0.5
2019-01-19T11:47:05.243Z,0.5
2019-01-19T11:49:05.083Z,0.5
2019-01-19T11:51:05.168Z,0.5
2019-01-19T11:53:05.115Z,0.5
2019-01-19T11:53:22.007Z,0.5
2019-01-19T11:55:05.252Z,0.5
2019-01-19T11:57:05.094Z,0.56
2019-01-19T11:59:05.242Z,0.63
2019-01-19T12:01:05.100Z,0.63
2019-01-19T12:03:05.058Z,0.56
2019-01-19T12:05:06.086Z,0.56
2019-01-19T12:07:05.026Z,0.63
2019-01-19T12:08:22.122Z,0.63
2019-01-19T12:09:05.179Z,0.63
2019-01-19T12:11:05.133Z,0.63
2019-01-19T12:13:05.028Z,0.63
2019-01-19T12:15:05.103Z,0.63
2019-01-19T12:17:05.156Z,0.69
2019-01-19T12:19:05.163Z,0.75
2019-01-19T12:21:05.145Z,0.75
2019-01-19T12:23:05.157Z,0.81
2019-01-19T12:23:22.070Z,0.81
2019-01-19T12:25:05.140Z,0.75
2019-01-19T12:27:05.053Z,0.81
2019-01-19T12:29:05.162Z,0.81
2019-01-19T12:31:05.242Z,0.81
2019-01-19T12:33:06.042Z,0.81
2019-01-19T12:35:05.352Z,0.88
2019-01-19T12:37:05.333Z,0.94
2019-01-19T12:38:26.699Z,1
2019-01-19T12:39:05.286Z,1
2019-01-19T12:41:05.260Z,1
2019-01-19T12:43:05.405Z,1
2019-01-19T12:45:05.056Z,0.94
2019-01-19T12:47:05.291Z,1
2019-01-19T12:49:06.050Z,1
2019-01-19T12:51:05.186Z,1
2019-01-19T12:53:05.329Z,1
2019-01-19T12:53:22.030Z,1
2019-01-19T12:55:05.230Z,1.06
2019-01-19T12:57:05.316Z,1.06
2019-01-19T12:59:05.169Z,1.06
2019-01-19T13:01:05.205Z,1.06
2019-01-19T13:03:05.064Z,1.13
2019-01-19T13:05:05.094Z,1.13
2019-01-19T13:07:05.375Z,1.13
2019-01-19T13:08:22.142Z,1.13
2019-01-19T13:09:12.314Z,1.19
2019-01-19T13:11:05.248Z,1.19
2019-01-19T13:13:05.165Z,1.19
2019-01-19T13:15:05.130Z,1.19
2019-01-19T13:17:05.133Z,1.25
2019-01-19T13:19:05.141Z,1.31
2019-01-19T13:21:05.160Z,1.38
2019-01-19T13:23:05.124Z,1.38
2019-01-19T13:23:21.998Z,1.38
2019-01-19T13:25:05.270Z,1.38
2019-01-19T13:27:05.279Z,1.38
2019-01-19T13:29:05.380Z,1.44
2019-01-19T13:31:05.286Z,1.44
2019-01-19T13:33:10.304Z,1.44
2019-01-19T13:35:05.110Z,1.38
2019-01-19T13:37:05.081Z,1.38
2019-01-19T13:38:22.103Z,1.38
2019-01-19T13:39:05.163Z,1.38
2019-01-19T13:41:05.255Z,1.38
2019-01-19T13:43:05.237Z,1.38
2019-01-19T13:45:05.247Z,1.38
2019-01-19T13:47:05.364Z,1.38
2019-01-19T13:49:05.054Z,1.38
2019-01-19T13:51:05.254Z,1.31
2019-01-19T13:53:05.058Z,1.38
2019-01-19T13:53:22.086Z,1.38
2019-01-19T13:55:05.347Z,1.31
2019-01-19T13:57:05.264Z,1.38
2019-01-19T13:59:05.151Z,1.38
2019-01-19T14:01:05.077Z,1.31
2019-01-19T14:03:05.266Z,1.44
2019-01-19T14:05:05.159Z,1.44
2019-01-19T14:07:05.157Z,1.44
2019-01-19T14:08:22.192Z,1.38
2019-01-19T14:09:05.453Z,1.31
2019-01-19T14:11:05.055Z,1.44
2019-01-19T14:13:05.131Z,1.44
2019-01-19T14:15:05.170Z,1.44
2019-01-19T14:17:05.149Z,1.44
2019-01-19T14:19:05.115Z,1.44
2019-01-19T14:21:06.962Z,1.38
2019-01-19T14:23:05.344Z,1.38
2019-01-19T14:23:22.071Z,1.38
2019-01-19T14:25:05.153Z,1.38
2019-01-19T14:27:05.123Z,1.44
2019-01-19T14:29:05.083Z,1.44
2019-01-19T14:31:05.038Z,1.44
2019-01-19T14:33:05.220Z,1.44
2019-01-19T14:35:06.241Z,1.44
2019-01-19T14:37:05.066Z,1.44
2019-01-19T14:38:22.129Z,1.38
2019-01-19T14:39:05.170Z,1.38
2019-01-19T14:41:05.145Z,1.38
2019-01-19T14:43:06.032Z,1.38
2019-01-19T14:45:05.124Z,1.38
2019-01-19T14:47:05.166Z,1.38
2019-01-19T14:49:05.172Z,1.38
2019-01-19T14:51:05.163Z,1.31
2019-01-19T14:53:05.153Z,1.31
2019-01-19T14:53:22.282Z,1.31
2019-01-19T14:55:06.144Z,1.31
2019-01-19T14:57:05.053Z,1.25
2019-01-19T14:59:05.192Z,1.31
2019-01-19T15:01:05.115Z,1.31
2019-01-19T15:03:06.063Z,1.25
2019-01-19T15:05:05.236Z,1.25
2019-01-19T15:07:05.117Z,1.25
2019-01-19T15:08:22.041Z,1.25
2019-01-19T15:09:05.293Z,1.25
2019-01-19T15:11:05.269Z,1.19
2019-01-19T15:13:05.241Z,1.13
2019-01-19T15:15:05.170Z,1.13
2019-01-19T15:17:05.118Z,1.13
2019-01-19T15:19:05.053Z,1.06
2019-01-19T15:21:05.129Z,1.06
2019-01-19T15:23:05.185Z,1.06
2019-01-19T15:23:22.129Z,1.06
2019-01-19T15:25:06.084Z,0.94
2019-01-19T15:27:05.142Z,1
2019-01-19T15:29:06.131Z,0.94
2019-01-19T15:31:05.162Z,0.94
2019-01-19T15:33:05.566Z,0.88
2019-01-19T15:35:05.049Z,0.88
2019-01-19T15:37:05.173Z,0.81
2019-01-19T15:38:22.267Z,0.75
2019-01-19T15:39:10.851Z,0.75
2019-01-19T15:41:06.138Z,0.75
2019-01-19T15:43:05.065Z,0.75
2019-01-19T15:45:05.175Z,0.69
2019-01-19T15:47:05.633Z,0.63
2019-01-19T15:49:05.259Z,0.63
2019-01-19T15:51:06.048Z,0.56
2019-01-19T15:53:05.161Z,0.56
2019-01-19T15:53:22.079Z,0.5
2019-01-19T15:55:05.998Z,0.5
2019-01-19T15:57:05.075Z,0.5
2019-01-19T15:59:05.245Z,0.44
2019-01-19T16:01:05.187Z,0.38
2019-01-19T16:03:05.436Z,0.31
2019-01-19T16:05:05.069Z,0.25
2019-01-19T16:07:05.150Z,0.19
2019-01-19T16:08:22.227Z,0.13
2019-01-19T16:09:06.183Z,0.13
2019-01-19T16:11:06.174Z,0.06
2019-01-19T16:13:05.163Z,0
2019-01-19T16:15:05.396Z,-0.13
2019-01-19T16:17:05.410Z,-0.13
2019-01-19T16:19:05.500Z,-0.13
2019-01-19T16:21:05.288Z,-0.06
2019-01-19T16:23:05.169Z,0
2019-01-19T16:23:22.158Z,0
2019-01-19T16:25:05.264Z,0
2019-01-19T16:27:06.304Z,-0.06
2019-01-19T16:29:06.175Z,-0.13
2019-01-19T16:31:05.170Z,-0.19
2019-01-19T16:33:05.275Z,-0.25
2019-01-19T16:35:05.493Z,-0.25
2019-01-19T16:37:05.136Z,-0.31
2019-01-19T16:38:22.281Z,-0.38
2019-01-19T16:39:05.104Z,-0.38
2019-01-19T16:41:05.441Z,-0.38
2019-01-19T16:43:05.498Z,-0.44
2019-01-19T16:45:05.465Z,-0.38
2019-01-19T16:47:06.110Z,-0.38
2019-01-19T16:49:05.522Z,-0.44
2019-01-19T16:51:05.617Z,-0.44
2019-01-19T16:53:05.326Z,-0.44
2019-01-19T16:53:22.169Z,-0.44
2019-01-19T16:55:05.276Z,-0.5
2019-01-19T16:57:10.475Z,-0.44
2019-01-19T16:59:06.105Z,-0.5
2019-01-19T17:01:05.286Z,-0.5
2019-01-19T17:03:05.174Z,-0.5
2019-01-19T17:05:05.247Z,-0.44
2019-01-19T17:07:05.154Z,-0.5
2019-01-19T17:08:22.112Z,-0.56
2019-01-19T17:09:05.185Z,-0.56
2019-01-19T17:11:06.067Z,-0.63
2019-01-19T17:13:05.268Z,-0.56
2019-01-19T17:15:05.124Z,-0.63
2019-01-19T17:17:05.149Z,-0.63
2019-01-19T17:19:05.297Z,-0.69
2019-01-19T17:21:05.315Z,-0.75
2019-01-19T17:23:05.289Z,-0.75
2019-01-19T17:23:22.283Z,-0.69
2019-01-19T17:25:06.030Z,-0.75
2019-01-19T17:27:06.029Z,-0.81
2019-01-19T17:29:05.125Z,-0.81
2019-01-19T17:31:05.069Z,-0.81
2019-01-19T17:33:05.173Z,-0.88
2019-01-19T17:35:05.452Z,-0.81
2019-01-19T17:37:06.088Z,-0.81
2019-01-19T17:38:24.177Z,-0.81
2019-01-19T17:39:06.059Z,-0.81
2019-01-19T17:41:05.549Z,-0.75
2019-01-19T17:43:05.175Z,-0.81
2019-01-19T17:45:05.387Z,-0.94
2019-01-19T17:47:06.367Z,-0.88
2019-01-19T17:49:05.124Z,-0.88
2019-01-19T17:51:06.324Z,-0.88
2019-01-19T17:53:05.158Z,-0.88
2019-01-19T17:53:22.237Z,-0.88
2019-01-19T17:55:05.163Z,-0.94
2019-01-19T17:57:05.163Z,-0.94
2019-01-19T17:59:05.129Z,-0.94
2019-01-19T18:01:05.137Z,-0.94
2019-01-19T18:03:05.211Z,-1
2019-01-19T18:05:05.131Z,-1
2019-01-19T18:07:05.058Z,-1
2019-01-19T18:08:23.158Z,-1
2019-01-19T18:09:05.118Z,-1
2019-01-19T18:11:05.061Z,-1
2019-01-19T18:13:05.175Z,-1.06
2019-01-19T18:15:05.188Z,-1
2019-01-19T18:17:05.158Z,-1.06
2019-01-19T18:19:05.204Z,-1.13
2019-01-19T18:21:05.164Z,-1.13
2019-01-19T18:23:05.437Z,-1.13
2019-01-19T18:23:22.187Z,-1.13
2019-01-19T18:25:05.208Z,-1.06
2019-01-19T18:27:05.060Z,-1.06
2019-01-19T18:29:05.229Z,-1.06
2019-01-19T18:31:05.178Z,-1.06
2019-01-19T18:33:05.175Z,-1.13
2019-01-19T18:35:05.281Z,-1.13
2019-01-19T18:37:05.290Z,-1.13
2019-01-19T18:38:27.503Z,-1.19
2019-01-19T18:39:05.183Z,-1.19
2019-01-19T18:41:05.367Z,-1.19
2019-01-19T18:43:05.409Z,-1.19
2019-01-19T18:45:05.440Z,-1.19
2019-01-19T18:47:06.123Z,-1.13
2019-01-19T18:49:05.233Z,-1.19
2019-01-19T18:51:05.083Z,-1.25
2019-01-19T18:53:05.177Z,-1.25
2019-01-19T18:53:22.073Z,-1.25
2019-01-19T18:55:06.028Z,-1.31
2019-01-19T18:57:06.728Z,-1.31
2019-01-19T18:59:06.774Z,-1.38
2019-01-19T19:01:06.333Z,-1.38
2019-01-19T19:03:06.516Z,-1.31
2019-01-19T19:05:06.600Z,-1.31
2019-01-19T19:07:06.391Z,-1.38
2019-01-19T19:08:22.333Z,-1.38
2019-01-19T19:09:06.874Z,-1.44
2019-01-19T19:11:06.006Z,-1.38
2019-01-19T19:13:05.182Z,-1.38
2019-01-19T19:15:05.363Z,-1.38
2019-01-19T19:17:05.064Z,-1.38
2019-01-19T19:19:05.196Z,-1.38
2019-01-19T19:21:05.181Z,-1.38
2019-01-19T19:23:05.125Z,-1.38
2019-01-19T19:23:22.085Z,-1.38
2019-01-19T19:25:05.158Z,-1.38
2019-01-19T19:27:05.315Z,-1.31
2019-01-19T19:29:05.317Z,-1.31
2019-01-19T19:31:06.121Z,-1.38
2019-01-19T19:33:05.145Z,-1.44
2019-01-19T19:35:06.062Z,-1.44
2019-01-19T19:37:05.193Z,-1.5
2019-01-19T19:38:22.262Z,-1.5
2019-01-19T19:39:05.147Z,-1.5
2019-01-19T19:41:05.191Z,-1.5
2019-01-19T19:43:05.195Z,-1.56
2019-01-19T19:45:05.187Z,-1.56
2019-01-19T19:47:05.249Z,-1.5
2019-01-19T19:49:05.250Z,-1.5
2019-01-19T19:51:05.127Z,-1.5
2019-01-19T19:53:05.178Z,-1.5
2019-01-19T19:53:22.026Z,-1.5
2019-01-19T19:55:05.083Z,-1.5
2019-01-19T19:57:05.062Z,-1.56
2019-01-19T19:59:05.134Z,-1.56
2019-01-19T20:01:05.187Z,-1.5
2019-01-19T20:03:06.166Z,-1.5
2019-01-19T20:05:05.149Z,-1.56
2019-01-19T20:07:05.244Z,-1.56
2019-01-19T20:08:22.127Z,-1.63
2019-01-19T20:09:05.266Z,-1.63
2019-01-19T20:11:05.263Z,-1.63
2019-01-19T20:13:05.247Z,-1.56
2019-01-19T20:15:05.404Z,-1.56
2019-01-19T20:17:06.028Z,-1.63
2019-01-19T20:19:05.221Z,-1.63
2019-01-19T20:21:05.053Z,-1.63
2019-01-19T20:23:06.050Z,-1.69
2019-01-19T20:23:22.158Z,-1.69
2019-01-19T20:25:05.215Z,-1.63
2019-01-19T20:27:05.298Z,-1.63
2019-01-19T20:29:05.190Z,-1.69
2019-01-19T20:31:05.120Z,-1.69
2019-01-19T20:33:05.097Z,-1.75
2019-01-19T20:35:05.105Z,-1.75
2019-01-19T20:37:05.500Z,-1.81
2019-01-19T20:38:22.217Z,-1.81
2019-01-19T20:39:05.349Z,-1.88
2019-01-19T20:41:06.051Z,-1.81
2019-01-19T20:43:05.159Z,-1.81
2019-01-19T20:45:05.316Z,-1.88
2019-01-19T20:47:05.188Z,-1.88
2019-01-19T20:49:05.258Z,-1.88
2019-01-19T20:51:05.260Z,-1.88
2019-01-19T20:53:05.213Z,-1.88
2019-01-19T20:53:23.207Z,-1.81
2019-01-19T20:55:05.374Z,-1.88
2019-01-19T20:57:05.174Z,-1.88
2019-01-19T20:59:05.193Z,-1.88
2019-01-19T21:01:05.288Z,-1.88
2019-01-19T21:03:06.143Z,-1.94
2019-01-19T21:05:05.173Z,-1.94
2019-01-19T21:07:07.017Z,-2
2019-01-19T21:08:22.191Z,-1.94
2019-01-19T21:09:05.158Z,-1.94
2019-01-19T21:11:05.483Z,-1.94
2019-01-19T21:13:05.154Z,-1.94
2019-01-19T21:15:05.138Z,-1.94
2019-01-19T21:17:05.137Z,-2
2019-01-19T21:19:05.184Z,-2
2019-01-19T21:21:05.113Z,-2
2019-01-19T21:23:05.193Z,-1.94
2019-01-19T21:23:22.068Z,-1.94
2019-01-19T21:25:06.173Z,-2
2019-01-19T21:27:05.185Z,-2
2019-01-19T21:29:06.858Z,-2
2019-01-19T21:31:05.154Z,-2.06
2019-01-19T21:33:07.195Z,-2.06
2019-01-19T21:35:07.309Z,-2.13
2019-01-19T21:37:07.566Z,-2.06
2019-01-19T21:38:24.784Z,-2.06
2019-01-19T21:39:07.545Z,-2.06
2019-01-19T21:41:06.333Z,-2.06
2019-01-19T21:43:06.997Z,-2.06
2019-01-19T21:45:07.919Z,-2.13
2019-01-19T21:47:07.830Z,-2.13
2019-01-19T21:49:07.499Z,-2.06
2019-01-19T21:51:08.101Z,-2.19
2019-01-19T21:53:06.471Z,-2.19
2019-01-19T21:53:23.136Z,-2.19
2019-01-19T21:55:06.677Z,-2.19
2019-01-19T21:57:06.568Z,-2.25
2019-01-19T21:59:06.029Z,-2.19
2019-01-19T22:01:06.889Z,-2.19
2019-01-19T22:03:07.477Z,-2.19
2019-01-19T22:05:09.602Z,-2.25
2019-01-19T22:07:06.105Z,-2.19
2019-01-19T22:08:23.478Z,-2.25
2019-01-19T22:09:06.921Z,-2.25
2019-01-19T22:11:05.324Z,-2.25
2019-01-19T22:13:06.760Z,-2.25
2019-01-19T22:15:06.464Z,-2.31
2019-01-19T22:17:07.619Z,-2.31
2019-01-19T22:19:06.016Z,-2.25
2019-01-19T22:21:06.450Z,-2.31
2019-01-19T22:23:06.509Z,-2.31
2019-01-19T22:23:22.960Z,-2.38
2019-01-19T22:25:06.701Z,-2.31
2019-01-19T22:27:06.184Z,-2.31
2019-01-19T22:29:05.850Z,-2.38
2019-01-19T22:31:06.314Z,-2.38
2019-01-19T22:33:06.635Z,-2.38
2019-01-19T22:35:07.004Z,-2.44
2019-01-19T22:37:06.993Z,-2.44
2019-01-19T22:38:23.475Z,-2.44
2019-01-19T22:39:06.547Z,-2.44
2019-01-19T22:41:06.773Z,-2.5
2019-01-19T22:43:05.550Z,-2.5
2019-01-19T22:45:05.362Z,-2.56
2019-01-19T22:47:05.162Z,-2.5
2019-01-19T22:49:05.230Z,-2.5
2019-01-19T22:51:11.151Z,-2.44
2019-01-19T22:53:05.412Z,-2.38
2019-01-19T22:53:22.094Z,-2.38
2019-01-19T22:55:05.233Z,-2.38
2019-01-19T22:57:05.228Z,-2.31
2019-01-19T22:59:05.222Z,-2.31
2019-01-19T23:01:05.147Z,-2.38
2019-01-19T23:03:05.177Z,-2.38